sensor_id;sensor_type;location;lat;lon;timestamp;pressure;altitude;pressure_sealevel;temperature;humidity
60240;BME280;46102;39.012;-7.064;2023-12-20T00:01:18;99794.97;;;5.71;100.00
60240;BME280;46102;39.012;-7.064;2023-12-20T00:03:19;99792.47;;;5.69;100.00
60240;BME280;46102;39.012;-7.064;2023-12-20T00:05:19;99794.38;;;5.69;100.00
60240;BME280;46102;39.012;-7.064;2023-12-20T00:07:20;99779.06;;;5.62;100.00
60240;BME280;46102;39.012;-7.064;2023-12-20T00:09:21;99777.19;;;5.63;100.00
60240;BME280;46102;39.012;-7.064;2023-12-20T00:11:22;99778.25;;;5.62;100.00
60240;BME280;46102;39.012;-7.064;2023-12-20T00:13:22;99770.41;;;5.66;100.00
60240;BME280;46102;39.012;-7.064;2023-12-20T00:15:23;99770.13;;;5.67;100.00
60240;BME280;46102;39.012;-7.064;2023-12-20T00:17:24;99765.53;;;5.68;100.00
60240;BME280;46102;39.012;-7.064;2023-12-20T00:19:25;99777.00;;;5.70;100.00
60240;BME280;46102;39.012;-7.064;2023-12-20T00:21:25;99771.03;;;5.73;100.00
60240;BME280;46102;39.012;-7.064;2023-12-20T00:23:26;99770.50;;;5.76;100.00
60240;BME280;46102;39.012;-7.064;2023-12-20T00:25:27;99766.63;;;5.72;100.00
60240;BME280;46102;39.012;-7.064;2023-12-20T00:27:28;99771.03;;;5.73;100.00
60240;BME280;46102;39.012;-7.064;2023-12-20T00:29:29;99766.41;;;5.73;100.00
60240;BME280;46102;39.012;-7.064;2023-12-20T00:31:29;99757.97;;;5.75;100.00
60240;BME280;46102;39.012;-7.064;2023-12-20T00:33:30;99767.72;;;5.71;100.00
60240;BME280;46102;39.012;-7.064;2023-12-20T00:35:31;99763.88;;;5.67;100.00
60240;BME280;46102;39.012;-7.064;2023-12-20T00:37:31;99765.97;;;5.59;100.00
60240;BME280;46102;39.012;-7.064;2023-12-20T00:39:32;99767.13;;;5.63;100.00
60240;BME280;46102;39.012;-7.064;2023-12-20T00:41:33;99757.81;;;5.59;100.00
60240;BME280;46102;39.012;-7.064;2023-12-20T00:43:34;99759.19;;;5.62;100.00
60240;BME280;46102;39.012;-7.064;2023-12-20T00:45:35;99754.63;;;5.68;100.00
60240;BME280;46102;39.012;-7.064;2023-12-20T00:47:35;99751.03;;;5.62;100.00
60240;BME280;46102;39.012;-7.064;2023-12-20T00:49:36;99757.56;;;5.61;100.00
60240;BME280;46102;39.012;-7.064;2023-12-20T00:51:37;99756.66;;;5.55;100.00
60240;BME280;46102;39.012;-7.064;2023-12-20T00:53:37;99750.66;;;5.53;100.00
60240;BME280;46102;39.012;-7.064;2023-12-20T00:55:38;99750.06;;;5.51;100.00
60240;BME280;46102;39.012;-7.064;2023-12-20T00:57:39;99751.78;;;5.57;100.00
60240;BME280;46102;39.012;-7.064;2023-12-20T00:59:40;99744.38;;;5.53;100.00
60240;BME280;46102;39.012;-7.064;2023-12-20T01:01:41;99756.41;;;5.57;100.00
60240;BME280;46102;39.012;-7.064;2023-12-20T01:03:42;99749.31;;;5.56;100.00
60240;BME280;46102;39.012;-7.064;2023-12-20T01:05:43;99748.00;;;5.58;100.00
60240;BME280;46102;39.012;-7.064;2023-12-20T01:07:44;99746.59;;;5.56;100.00
60240;BME280;46102;39.012;-7.064;2023-12-20T01:09:44;99739.84;;;5.58;100.00
60240;BME280;46102;39.012;-7.064;2023-12-20T01:11:45;99746.09;;;5.59;100.00
60240;BME280;46102;39.012;-7.064;2023-12-20T01:13:46;99749.06;;;5.57;100.00
60240;BME280;46102;39.012;-7.064;2023-12-20T01:15:47;99735.97;;;5.54;100.00
60240;BME280;46102;39.012;-7.064;2023-12-20T01:17:48;99733.25;;;5.54;100.00
60240;BME280;46102;39.012;-7.064;2023-12-20T01:19:49;99734.88;;;5.55;100.00
60240;BME280;46102;39.012;-7.064;2023-12-20T01:21:50;99735.69;;;5.56;100.00
60240;BME280;46102;39.012;-7.064;2023-12-20T01:23:51;99728.94;;;5.58;100.00
60240;BME280;46102;39.012;-7.064;2023-12-20T01:25:52;99730.81;;;5.58;100.00
60240;BME280;46102;39.012;-7.064;2023-12-20T01:27:52;99732.72;;;5.57;100.00
60240;BME280;46102;39.012;-7.064;2023-12-20T01:29:53;99733.31;;;5.59;100.00
60240;BME280;46102;39.012;-7.064;2023-12-20T01:31:54;99737.59;;;5.55;100.00
60240;BME280;46102;39.012;-7.064;2023-12-20T01:33:55;99735.22;;;5.59;100.00
60240;BME280;46102;39.012;-7.064;2023-12-20T01:35:56;99737.13;;;5.58;100.00
60240;BME280;46102;39.012;-7.064;2023-12-20T01:37:57;99736.59;;;5.61;100.00
60240;BME280;46102;39.012;-7.064;2023-12-20T01:39:58;99728.94;;;5.58;100.00
60240;BME280;46102;39.012;-7.064;2023-12-20T01:41:59;99729.19;;;5.57;100.00
60240;BME280;46102;39.012;-7.064;2023-12-20T01:44:00;99724.75;;;5.51;100.00
60240;BME280;46102;39.012;-7.064;2023-12-20T01:46:00;99731.88;;;5.52;100.00
60240;BME280;46102;39.012;-7.064;2023-12-20T01:48:02;99732.34;;;5.49;100.00
60240;BME280;46102;39.012;-7.064;2023-12-20T01:50:05;99729.91;;;5.47;100.00
60240;BME280;46102;39.012;-7.064;2023-12-20T01:52:08;99739.66;;;5.43;100.00
60240;BME280;46102;39.012;-7.064;2023-12-20T01:54:09;99733.06;;;5.39;100.00
60240;BME280;46102;39.012;-7.064;2023-12-20T01:56:11;99736.84;;;5.38;100.00
60240;BME280;46102;39.012;-7.064;2023-12-20T01:58:13;99736.03;;;5.37;100.00
60240;BME280;46102;39.012;-7.064;2023-12-20T02:00:15;99731.41;;;5.38;100.00
60240;BME280;46102;39.012;-7.064;2023-12-20T02:02:16;99735.28;;;5.42;100.00
60240;BME280;46102;39.012;-7.064;2023-12-20T02:04:17;99734.91;;;5.33;100.00
60240;BME280;46102;39.012;-7.064;2023-12-20T02:06:18;99745.28;;;5.36;100.00
60240;BME280;46102;39.012;-7.064;2023-12-20T02:08:22;99730.59;;;5.37;100.00
60240;BME280;46102;39.012;-7.064;2023-12-20T02:10:23;99727.88;;;5.37;100.00
60240;BME280;46102;39.012;-7.064;2023-12-20T02:12:24;99727.88;;;5.37;100.00
60240;BME280;46102;39.012;-7.064;2023-12-20T02:14:25;99719.47;;;5.39;100.00
60240;BME280;46102;39.012;-7.064;2023-12-20T02:16:26;99724.38;;;5.42;100.00
60240;BME280;46102;39.012;-7.064;2023-12-20T02:18:27;99717.31;;;5.41;100.00
60240;BME280;46102;39.012;-7.064;2023-12-20T02:20:28;99723.56;;;5.41;100.00
60240;BME280;46102;39.012;-7.064;2023-12-20T02:22:28;99717.56;;;5.39;100.00
60240;BME280;46102;39.012;-7.064;2023-12-20T02:24:31;99720.34;;;5.45;100.00
60240;BME280;46102;39.012;-7.064;2023-12-20T02:26:33;99708.06;;;5.42;100.00
60240;BME280;46102;39.012;-7.064;2023-12-20T02:28:34;99712.38;;;5.38;100.00
60240;BME280;46102;39.012;-7.064;2023-12-20T02:30:35;99710.16;;;5.35;100.00
60240;BME280;46102;39.012;-7.064;2023-12-20T02:32:36;99704.47;;;5.36;100.00
60240;BME280;46102;39.012;-7.064;2023-12-20T02:34:36;99702.91;;;5.40;100.00
60240;BME280;46102;39.012;-7.064;2023-12-20T02:36:37;99707.78;;;5.38;100.00
60240;BME280;46102;39.012;-7.064;2023-12-20T02:38:38;99712.16;;;5.45;100.00
60240;BME280;46102;39.012;-7.064;2023-12-20T02:40:39;99714.88;;;5.45;100.00
60240;BME280;46102;39.012;-7.064;2023-12-20T02:42:39;99709.19;;;5.46;100.00
60240;BME280;46102;39.012;-7.064;2023-12-20T02:44:40;99699.44;;;5.50;100.00
60240;BME280;46102;39.012;-7.064;2023-12-20T02:46:41;99705.72;;;5.51;100.00
60240;BME280;46102;39.012;-7.064;2023-12-20T02:48:42;99695.63;;;5.51;100.00
60240;BME280;46102;39.012;-7.064;2023-12-20T02:50:42;99709.00;;;5.53;100.00
60240;BME280;46102;39.012;-7.064;2023-12-20T02:52:45;99699.25;;;5.57;100.00
60240;BME280;46102;39.012;-7.064;2023-12-20T02:54:46;99693.84;;;5.62;100.00
60240;BME280;46102;39.012;-7.064;2023-12-20T02:56:47;99690.31;;;5.61;100.00
60240;BME280;46102;39.012;-7.064;2023-12-20T02:58:48;99690.88;;;5.63;100.00
60240;BME280;46102;39.012;-7.064;2023-12-20T03:00:49;99695.50;;;5.63;100.00
60240;BME280;46102;39.012;-7.064;2023-12-20T03:02:50;99697.91;;;5.59;100.00
60240;BME280;46102;39.012;-7.064;2023-12-20T03:04:50;99693.88;;;5.67;100.00
60240;BME280;46102;39.012;-7.064;2023-12-20T03:06:51;99698.28;;;5.68;100.00
60240;BME280;46102;39.012;-7.064;2023-12-20T03:08:52;99698.84;;;5.70;100.00
60240;BME280;46102;39.012;-7.064;2023-12-20T03:10:53;99686.56;;;5.68;100.00
60240;BME280;46102;39.012;-7.064;2023-12-20T03:12:53;99686.00;;;5.66;100.00
60240;BME280;46102;39.012;-7.064;2023-12-20T03:14:54;99686.84;;;5.71;100.00
60240;BME280;46102;39.012;-7.064;2023-12-20T03:16:55;99679.22;;;5.68;100.00
60240;BME280;46102;39.012;-7.064;2023-12-20T03:18:56;99670.22;;;5.68;100.00
60240;BME280;46102;39.012;-7.064;2023-12-20T03:20:56;99674.59;;;5.69;100.00
60240;BME280;46102;39.012;-7.064;2023-12-20T03:22:57;99677.09;;;5.75;100.00
60240;BME280;46102;39.012;-7.064;2023-12-20T03:24:58;99670.03;;;5.74;100.00
60240;BME280;46102;39.012;-7.064;2023-12-20T03:26:59;99671.13;;;5.78;100.00
60240;BME280;46102;39.012;-7.064;2023-12-20T03:28:59;99666.97;;;5.71;100.00
60240;BME280;46102;39.012;-7.064;2023-12-20T03:31:00;99666.47;;;5.74;100.00
60240;BME280;46102;39.012;-7.064;2023-12-20T03:33:02;99660.22;;;5.78;100.00
60240;BME280;46102;39.012;-7.064;2023-12-20T03:35:03;99673.28;;;5.76;100.00
60240;BME280;46102;39.012;-7.064;2023-12-20T03:37:04;99661.00;;;5.74;100.00
60240;BME280;46102;39.012;-7.064;2023-12-20T03:39:05;99658.28;;;5.74;100.00
60240;BME280;46102;39.012;-7.064;2023-12-20T03:41:07;99668.13;;;5.75;100.00
60240;BME280;46102;39.012;-7.064;2023-12-20T03:43:07;99655.00;;;5.72;100.00
60240;BME280;46102;39.012;-7.064;2023-12-20T03:45:08;99650.41;;;5.72;100.00
60240;BME280;46102;39.012;-7.064;2023-12-20T03:47:09;99646.91;;;5.77;100.00
60240;BME280;46102;39.012;-7.064;2023-12-20T03:49:10;99646.59;;;5.73;100.00
60240;BME280;46102;39.012;-7.064;2023-12-20T03:51:11;99639.78;;;5.76;100.00
60240;BME280;46102;39.012;-7.064;2023-12-20T03:53:12;99637.88;;;5.76;100.00
60240;BME280;46102;39.012;-7.064;2023-12-20T03:55:12;99637.66;;;5.83;100.00
60240;BME280;46102;39.012;-7.064;2023-12-20T03:57:13;99632.22;;;5.83;100.00
60240;BME280;46102;39.012;-7.064;2023-12-20T03:59:14;99632.75;;;5.80;100.00
60240;BME280;46102;39.012;-7.064;2023-12-20T04:01:14;99621.63;;;5.87;100.00
60240;BME280;46102;39.012;-7.064;2023-12-20T04:03:15;99628.19;;;5.86;100.00
60240;BME280;46102;39.012;-7.064;2023-12-20T04:05:16;99625.19;;;5.87;100.00
60240;BME280;46102;39.012;-7.064;2023-12-20T04:07:17;99624.38;;;5.87;100.00
60240;BME280;46102;39.012;-7.064;2023-12-20T04:09:17;99623.34;;;5.93;100.00
60240;BME280;46102;39.012;-7.064;2023-12-20T04:11:18;99621.94;;;5.90;100.00
60240;BME280;46102;39.012;-7.064;2023-12-20T04:13:19;99613.78;;;5.90;100.00
60240;BME280;46102;39.012;-7.064;2023-12-20T04:15:20;99624.94;;;5.89;100.00
60240;BME280;46102;39.012;-7.064;2023-12-20T04:17:20;99621.38;;;5.88;100.00
60240;BME280;46102;39.012;-7.064;2023-12-20T04:19:23;99624.41;;;5.92;100.00
60240;BME280;46102;39.012;-7.064;2023-12-20T04:21:24;99618.13;;;5.91;100.00
60240;BME280;46102;39.012;-7.064;2023-12-20T04:23:24;99623.59;;;5.91;100.00
60240;BME280;46102;39.012;-7.064;2023-12-20T04:25:25;99613.59;;;5.97;100.00
60240;BME280;46102;39.012;-7.064;2023-12-20T04:27:26;99623.34;;;5.93;100.00
60240;BME280;46102;39.012;-7.064;2023-12-20T04:29:27;99620.59;;;5.93;100.00
60240;BME280;46102;39.012;-7.064;2023-12-20T04:31:27;99621.19;;;5.95;100.00
60240;BME280;46102;39.012;-7.064;2023-12-20T04:33:28;99627.69;;;5.94;100.00
60240;BME280;46102;39.012;-7.064;2023-12-20T04:35:29;99626.66;;;5.95;100.00
60240;BME280;46102;39.012;-7.064;2023-12-20T04:37:30;99619.28;;;5.95;100.00
60240;BME280;46102;39.012;-7.064;2023-12-20T04:39:30;99614.91;;;5.94;100.00
60240;BME280;46102;39.012;-7.064;2023-12-20T04:41:31;99618.91;;;5.87;100.00
60240;BME280;46102;39.012;-7.064;2023-12-20T04:43:33;99620.03;;;5.91;100.00
60240;BME280;46102;39.012;-7.064;2023-12-20T04:45:33;99616.50;;;5.90;100.00
60240;BME280;46102;39.012;-7.064;2023-12-20T04:47:34;99621.38;;;5.88;100.00
60240;BME280;46102;39.012;-7.064;2023-12-20T04:49:35;99613.59;;;5.97;100.00
60240;BME280;46102;39.012;-7.064;2023-12-20T04:51:36;99609.22;;;5.96;100.00
60240;BME280;46102;39.012;-7.064;2023-12-20T04:53:36;99605.13;;;5.98;100.00
60240;BME280;46102;39.012;-7.064;2023-12-20T04:55:37;99608.44;;;6.00;100.00
60240;BME280;46102;39.012;-7.064;2023-12-20T04:57:39;99599.22;;;6.07;100.00
60240;BME280;46102;39.012;-7.064;2023-12-20T04:59:40;99603.56;;;6.08;100.00
60240;BME280;46102;39.012;-7.064;2023-12-20T05:01:42;99606.03;;;6.09;100.00
60240;BME280;46102;39.012;-7.064;2023-12-20T05:03:42;99618.31;;;6.12;100.00
60240;BME280;46102;39.012;-7.064;2023-12-20T05:05:43;99610.44;;;6.15;100.00
60240;BME280;46102;39.012;-7.064;2023-12-20T05:07:44;99604.47;;;6.18;100.00
60240;BME280;46102;39.012;-7.064;2023-12-20T05:09:45;99607.50;;;6.22;100.00
60240;BME280;46102;39.012;-7.064;2023-12-20T05:11:45;99614.84;;;6.21;100.00
60240;BME280;46102;39.012;-7.064;2023-12-20T05:13:46;99614.06;;;6.26;100.00
60240;BME280;46102;39.012;-7.064;2023-12-20T05:15:47;99617.31;;;6.28;100.00
60240;BME280;46102;39.012;-7.064;2023-12-20T05:17:48;99612.72;;;6.29;100.00
60240;BME280;46102;39.012;-7.064;2023-12-20T05:19:48;99613.00;;;6.32;100.00
60240;BME280;46102;39.012;-7.064;2023-12-20T05:21:49;99610.03;;;6.39;100.00
60240;BME280;46102;39.012;-7.064;2023-12-20T05:23:50;99614.69;;;6.43;100.00
60240;BME280;46102;39.012;-7.064;2023-12-20T05:25:51;99607.88;;;6.46;100.00
60240;BME280;46102;39.012;-7.064;2023-12-20T05:27:52;99605.72;;;6.48;100.00
60240;BME280;46102;39.012;-7.064;2023-12-20T05:29:53;99603.03;;;6.53;100.00
60240;BME280;46102;39.012;-7.064;2023-12-20T05:31:58;99606.59;;;6.54;100.00
60240;BME280;46102;39.012;-7.064;2023-12-20T05:33:59;99609.31;;;6.59;100.00
60240;BME280;46102;39.012;-7.064;2023-12-20T05:35:59;99604.16;;;6.62;100.00
60240;BME280;46102;39.012;-7.064;2023-12-20T05:38:00;99600.09;;;6.65;100.00
60240;BME280;46102;39.012;-7.064;2023-12-20T05:40:01;99611.81;;;6.65;100.00
60240;BME280;46102;39.012;-7.064;2023-12-20T05:42:02;99615.91;;;6.68;100.00
60240;BME280;46102;39.012;-7.064;2023-12-20T05:44:02;99612.63;;;6.66;100.00
60240;BME280;46102;39.012;-7.064;2023-12-20T05:46:03;99608.84;;;6.72;100.00
60240;BME280;46102;39.012;-7.064;2023-12-20T05:48:04;99605.56;;;6.75;100.00
60240;BME280;46102;39.012;-7.064;2023-12-20T05:50:05;99604.75;;;6.75;100.00
60240;BME280;46102;39.012;-7.064;2023-12-20T05:52:06;99603.41;;;6.77;100.00
60240;BME280;46102;39.012;-7.064;2023-12-20T05:54:09;99611.88;;;6.81;100.00
60240;BME280;46102;39.012;-7.064;2023-12-20T05:56:10;99605.63;;;6.80;100.00
60240;BME280;46102;39.012;-7.064;2023-12-20T05:58:11;99604.53;;;6.86;100.00
60240;BME280;46102;39.012;-7.064;2023-12-20T06:00:12;99592.00;;;6.91;100.00
60240;BME280;46102;39.012;-7.064;2023-12-20T06:02:14;99596.94;;;6.94;100.00
60240;BME280;46102;39.012;-7.064;2023-12-20T06:04:15;99596.13;;;6.98;100.00
60240;BME280;46102;39.012;-7.064;2023-12-20T06:06:15;99603.22;;;6.99;100.00
60240;BME280;46102;39.012;-7.064;2023-12-20T06:08:17;99604.06;;;7.05;100.00
60240;BME280;46102;39.012;-7.064;2023-12-20T06:10:18;99602.41;;;7.04;100.00
60240;BME280;46102;39.012;-7.064;2023-12-20T06:12:19;99601.03;;;7.06;100.00
60240;BME280;46102;39.012;-7.064;2023-12-20T06:14:20;99599.16;;;7.07;100.00
60240;BME280;46102;39.012;-7.064;2023-12-20T06:16:21;99598.88;;;7.08;100.00
60240;BME280;46102;39.012;-7.064;2023-12-20T06:18:21;99598.06;;;7.08;100.00
60240;BME280;46102;39.012;-7.064;2023-12-20T06:20:22;99603.81;;;7.12;100.00
60240;BME280;46102;39.012;-7.064;2023-12-20T06:22:23;99599.72;;;7.14;100.00
60240;BME280;46102;39.012;-7.064;2023-12-20T06:24:24;99600.00;;;7.18;100.00
60240;BME280;46102;39.012;-7.064;2023-12-20T06:26:28;99603.28;;;7.20;100.00
60240;BME280;46102;39.012;-7.064;2023-12-20T06:28:29;99593.47;;;7.24;100.00
60240;BME280;46102;39.012;-7.064;2023-12-20T06:30:29;99588.56;;;7.26;100.00
60240;BME280;46102;39.012;-7.064;2023-12-20T06:32:33;99587.75;;;7.30;100.00
60240;BME280;46102;39.012;-7.064;2023-12-20T06:34:34;99587.75;;;7.30;100.00
60240;BME280;46102;39.012;-7.064;2023-12-20T06:36:35;99579.56;;;7.30;100.00
60240;BME280;46102;39.012;-7.064;2023-12-20T06:38:36;99586.94;;;7.30;100.00
60240;BME280;46102;39.012;-7.064;2023-12-20T06:40:37;99587.19;;;7.34;100.00
60240;BME280;46102;39.012;-7.064;2023-12-20T06:42:37;99591.03;;;7.33;100.00
60240;BME280;46102;39.012;-7.064;2023-12-20T06:44:38;99597.03;;;7.35;100.00
60240;BME280;46102;39.012;-7.064;2023-12-20T06:46:40;99605.78;;;7.37;100.00
60240;BME280;46102;39.012;-7.064;2023-12-20T06:48:41;99601.13;;;7.42;100.00
60240;BME280;46102;39.012;-7.064;2023-12-20T06:50:41;99601.69;;;7.44;100.00
60240;BME280;46102;39.012;-7.064;2023-12-20T06:52:42;99598.69;;;7.46;100.00
60240;BME280;46102;39.012;-7.064;2023-12-20T06:54:43;99598.69;;;7.46;100.00
60240;BME280;46102;39.012;-7.064;2023-12-20T06:56:43;99601.69;;;7.49;100.00
60240;BME280;46102;39.012;-7.064;2023-12-20T06:58:45;99601.97;;;7.53;100.00
60240;BME280;46102;39.012;-7.064;2023-12-20T07:00:45;99605.81;;;7.52;100.00
60240;BME280;46102;39.012;-7.064;2023-12-20T07:02:46;99607.97;;;7.55;100.00
60240;BME280;46102;39.012;-7.064;2023-12-20T07:04:48;99606.88;;;7.56;100.00
60240;BME280;46102;39.012;-7.064;2023-12-20T07:06:48;99595.44;;;7.59;100.00
60240;BME280;46102;39.012;-7.064;2023-12-20T07:08:52;99601.69;;;7.60;100.00
60240;BME280;46102;39.012;-7.064;2023-12-20T07:10:53;99599.53;;;7.62;100.00
60240;BME280;46102;39.012;-7.064;2023-12-20T07:12:54;99609.34;;;7.63;100.00
60240;BME280;46102;39.012;-7.064;2023-12-20T07:14:55;99606.06;;;7.61;100.00
60240;BME280;46102;39.012;-7.064;2023-12-20T07:16:56;99613.19;;;7.62;100.00
60240;BME280;46102;39.012;-7.064;2023-12-20T07:18:57;99604.97;;;7.62;100.00
60240;BME280;46102;39.012;-7.064;2023-12-20T07:20:58;99604.97;;;7.67;100.00
60240;BME280;46102;39.012;-7.064;2023-12-20T07:22:59;99619.44;;;7.67;100.00
60240;BME280;46102;39.012;-7.064;2023-12-20T07:25:00;99618.38;;;7.68;100.00
60240;BME280;46102;39.012;-7.064;2023-12-20T07:27:01;99626.00;;;7.71;100.00
60240;BME280;46102;39.012;-7.064;2023-12-20T07:29:02;99622.19;;;7.72;100.00
60240;BME280;46102;39.012;-7.064;2023-12-20T07:31:04;99619.47;;;7.72;100.00
60240;BME280;46102;39.012;-7.064;2023-12-20T07:33:05;99617.81;;;7.77;100.00
60240;BME280;46102;39.012;-7.064;2023-12-20T07:35:08;99628.47;;;7.83;100.00
60240;BME280;46102;39.012;-7.064;2023-12-20T07:37:09;99625.72;;;7.83;100.00
60240;BME280;46102;39.012;-7.064;2023-12-20T07:39:14;99618.91;;;7.81;100.00
60240;BME280;46102;39.012;-7.064;2023-12-20T07:41:15;99613.44;;;7.81;100.00
60240;BME280;46102;39.012;-7.064;2023-12-20T07:43:21;99617.84;;;7.82;100.00
60240;BME280;46102;39.012;-7.064;2023-12-20T07:45:22;99617.28;;;7.85;100.00
60240;BME280;46102;39.012;-7.064;2023-12-20T07:47:23;99613.47;;;7.86;100.00
60240;BME280;46102;39.012;-7.064;2023-12-20T07:49:24;99610.72;;;7.86;100.00
60240;BME280;46102;39.012;-7.064;2023-12-20T07:51:24;99611.25;;;7.88;100.00
60240;BME280;46102;39.012;-7.064;2023-12-20T07:53:25;99601.16;;;7.88;100.00
60240;BME280;46102;39.012;-7.064;2023-12-20T07:55:26;99610.16;;;7.94;100.00
60240;BME280;46102;39.012;-7.064;2023-12-20T07:57:30;99610.97;;;7.95;100.00
60240;BME280;46102;39.012;-7.064;2023-12-20T07:59:31;99606.34;;;7.95;100.00
60240;BME280;46102;39.012;-7.064;2023-12-20T08:01:31;99605.25;;;7.96;100.00
60240;BME280;46102;39.012;-7.064;2023-12-20T08:03:32;99606.59;;;7.99;100.00
60240;BME280;46102;39.012;-7.064;2023-12-20T08:05:33;99607.97;;;8.01;100.00
60240;BME280;46102;39.012;-7.064;2023-12-20T08:07:34;99614.53;;;8.00;100.00
60240;BME280;46102;39.012;-7.064;2023-12-20T08:09:34;99607.97;;;8.01;100.00
60240;BME280;46102;39.012;-7.064;2023-12-20T08:11:37;99602.25;;;8.03;100.00
60240;BME280;46102;39.012;-7.064;2023-12-20T08:13:37;99606.06;;;8.02;100.00
60240;BME280;46102;39.012;-7.064;2023-12-20T08:15:38;99607.16;;;8.06;100.00
60240;BME280;46102;39.012;-7.064;2023-12-20T08:17:39;99606.06;;;8.07;100.00
60240;BME280;46102;39.012;-7.064;2023-12-20T08:19:40;99607.69;;;8.08;100.00
60240;BME280;46102;39.012;-7.064;2023-12-20T08:21:40;99611.78;;;8.10;100.00
60240;BME280;46102;39.012;-7.064;2023-12-20T08:23:41;99613.44;;;8.11;100.00
60240;BME280;46102;39.012;-7.064;2023-12-20T08:25:42;99612.63;;;8.11;100.00
60240;BME280;46102;39.012;-7.064;2023-12-20T08:27:43;99606.31;;;8.10;100.00
60240;BME280;46102;39.012;-7.064;2023-12-20T08:29:44;99604.97;;;8.13;100.00
60240;BME280;46102;39.012;-7.064;2023-12-20T08:31:46;99610.44;;;8.13;100.00
60240;BME280;46102;39.012;-7.064;2023-12-20T08:33:48;99615.34;;;8.16;100.00
60240;BME280;46102;39.012;-7.064;2023-12-20T08:35:49;99620.25;;;8.19;100.00
60240;BME280;46102;39.012;-7.064;2023-12-20T08:37:49;99618.63;;;8.18;100.00
60240;BME280;46102;39.012;-7.064;2023-12-20T08:39:50;99621.91;;;8.20;100.00
60240;BME280;46102;39.012;-7.064;2023-12-20T08:41:51;99616.69;;;8.24;100.00
60240;BME280;46102;39.012;-7.064;2023-12-20T08:43:52;99618.88;;;8.27;100.00
60240;BME280;46102;39.012;-7.064;2023-12-20T08:45:53;99621.88;;;8.30;100.00
60240;BME280;46102;39.012;-7.064;2023-12-20T08:47:53;99622.72;;;8.31;100.00
60240;BME280;46102;39.012;-7.064;2023-12-20T08:49:54;99624.06;;;8.33;100.00
60240;BME280;46102;39.012;-7.064;2023-12-20T08:51:56;99625.44;;;8.36;100.00
60240;BME280;46102;39.012;-7.064;2023-12-20T08:53:57;99629.00;;;8.42;100.00
60240;BME280;46102;39.012;-7.064;2023-12-20T08:55:58;99637.47;;;8.45;100.00
60240;BME280;46102;39.012;-7.064;2023-12-20T08:58:01;99636.66;;;8.45;100.00
60240;BME280;46102;39.012;-7.064;2023-12-20T09:00:02;99641.03;;;8.46;100.00
60240;BME280;46102;39.012;-7.064;2023-12-20T09:02:04;99649.25;;;8.41;100.00
60240;BME280;46102;39.012;-7.064;2023-12-20T09:04:04;99648.97;;;8.42;100.00
60240;BME280;46102;39.012;-7.064;2023-12-20T09:06:06;99653.88;;;8.45;100.00
60240;BME280;46102;39.012;-7.064;2023-12-20T09:08:07;99648.41;;;8.50;100.00
60240;BME280;46102;39.012;-7.064;2023-12-20T09:10:10;99652.22;;;8.54;100.00
60240;BME280;46102;39.012;-7.064;2023-12-20T09:12:11;99660.41;;;8.60;100.00
60240;BME280;46102;39.012;-7.064;2023-12-20T09:14:12;99657.13;;;8.68;100.00
60240;BME280;46102;39.012;-7.064;2023-12-20T09:16:13;99664.75;;;8.71;100.00
60240;BME280;46102;39.012;-7.064;2023-12-20T09:18:16;99671.31;;;8.75;100.00
60240;BME280;46102;39.012;-7.064;2023-12-20T09:20:17;99676.25;;;8.78;100.00
60240;BME280;46102;39.012;-7.064;2023-12-20T09:22:17;99675.13;;;8.79;100.00
60240;BME280;46102;39.012;-7.064;2023-12-20T09:24:18;99680.63;;;8.79;100.00
60240;BME280;46102;39.012;-7.064;2023-12-20T09:26:19;99676.22;;;8.83;100.00
60240;BME280;46102;39.012;-7.064;2023-12-20T09:28:21;99686.34;;;8.88;100.00
60240;BME280;46102;39.012;-7.064;2023-12-20T09:30:22;99695.34;;;8.93;100.00
60240;BME280;46102;39.012;-7.064;2023-12-20T09:32:23;99696.69;;;8.96;100.00
60240;BME280;46102;39.012;-7.064;2023-12-20T09:34:24;99697.22;;;8.98;100.00
60240;BME280;46102;39.012;-7.064;2023-12-20T09:36:26;99692.03;;;9.02;100.00
60240;BME280;46102;39.012;-7.064;2023-12-20T09:38:27;99696.94;;;9.05;100.00
60240;BME280;46102;39.012;-7.064;2023-12-20T09:40:30;99705.16;;;9.10;100.00
60240;BME280;46102;39.012;-7.064;2023-12-20T09:42:55;99711.16;;;9.17;100.00
60240;BME280;46102;39.012;-7.064;2023-12-20T09:45:00;99716.88;;;9.21;100.00
60240;BME280;46102;39.012;-7.064;2023-12-20T09:47:04;99714.13;;;9.21;100.00
60240;BME280;46102;39.012;-7.064;2023-12-20T09:49:05;99726.97;;;9.25;100.00
60240;BME280;46102;39.012;-7.064;2023-12-20T09:51:07;99723.69;;;9.28;100.00
60240;BME280;46102;39.012;-7.064;2023-12-20T09:53:13;99731.88;;;9.33;100.00
60240;BME280;46102;39.012;-7.064;2023-12-20T09:55:17;99728.06;;;9.34;100.00
60240;BME280;46102;39.012;-7.064;2023-12-20T09:57:19;99734.59;;;9.38;100.00
60240;BME280;46102;39.012;-7.064;2023-12-20T09:59:20;99736.47;;;9.43;100.00
60240;BME280;46102;39.012;-7.064;2023-12-20T10:01:21;99736.19;;;9.50;100.00
60240;BME280;46102;39.012;-7.064;2023-12-20T10:03:24;99737.53;;;9.52;100.00
60240;BME280;46102;39.012;-7.064;2023-12-20T10:05:32;99748.22;;;9.54;100.00
60240;BME280;46102;39.012;-7.064;2023-12-20T10:07:34;99752.59;;;9.60;100.00
60240;BME280;46102;39.012;-7.064;2023-12-20T10:09:36;99752.00;;;9.63;100.00
60240;BME280;46102;39.012;-7.064;2023-12-20T10:11:38;99756.94;;;9.66;100.00
60240;BME280;46102;39.012;-7.064;2023-12-20T10:13:42;99747.56;;;9.72;100.00
60240;BME280;46102;39.012;-7.064;2023-12-20T10:15:43;99750.84;;;9.79;100.00
60240;BME280;46102;39.012;-7.064;2023-12-20T10:17:44;99746.94;;;9.91;100.00
60240;BME280;46102;39.012;-7.064;2023-12-20T10:19:45;99752.09;;;9.97;100.00
60240;BME280;46102;39.012;-7.064;2023-12-20T10:21:45;99749.03;;;10.04;100.00
60240;BME280;46102;39.012;-7.064;2023-12-20T10:23:47;99753.38;;;10.10;100.00
60240;BME280;46102;39.012;-7.064;2023-12-20T10:25:59;99756.06;;;10.15;100.00
60240;BME280;46102;39.012;-7.064;2023-12-20T10:28:13;99755.47;;;10.24;100.00
60240;BME280;46102;39.012;-7.064;2023-12-20T10:30:14;99755.44;;;10.34;100.00
60240;BME280;46102;39.012;-7.064;2023-12-20T10:32:25;99747.47;;;10.67;100.00
60240;BME280;46102;39.012;-7.064;2023-12-20T10:34:26;99746.69;;;11.14;100.00